Sinsinawa, Wisconsin
Current Conditions -  °F | °C
As of 3:53 PM on Monday 24 Nov 2014 (Local Time) from KDBQ Reporting Station
Overcast Overcast  
Wind Chill:   Ceiling: 1100
Heat Index: 21°   Visibility: 10mi
Dew Point: 18°   Wind: 22mph
Humidity: 88%   Direction: 270°W
Pressure: 29.57"   Gusts: NA
Location:  42.52°N, 90.54°W
Report Text: KDBQ 242153Z 27019KT 10SM OVC011 M06/M08 A2957 RMK AO2 PK WND 28032/2102 SLP027 T10611078
Loading
Personal Weather Stations






























Interactive Weather Map New forecast layout! Learn more

10-Day Weather Forecast

Advertisements
Track Severe Weather on mobile